createdAt,value
2023-01-17T01:22:40.592Z,7.60
2023-01-17T01:25:26.822Z,7.73
2023-01-17T01:28:21.858Z,7.73
2023-01-17T01:31:07.831Z,7.73
2023-01-17T01:33:34.957Z,7.74
2023-01-17T01:36:02.341Z,7.74
2023-01-17T01:38:30.035Z,7.75
2023-01-17T01:40:57.014Z,7.75
2023-01-17T01:43:47.268Z,7.75
2023-01-17T01:46:18.015Z,7.76
2023-01-17T01:48:58.044Z,7.78
2023-01-17T01:51:27.666Z,7.82
2023-01-17T01:53:59.611Z,7.82
2023-01-17T01:56:26.642Z,7.84
2023-01-17T01:58:53.666Z,7.85
2023-01-17T02:01:20.741Z,7.87
2023-01-17T02:03:47.981Z,7.88
2023-01-17T02:06:32.317Z,7.90
2023-01-17T02:09:05.471Z,7.91
2023-01-17T02:11:32.549Z,7.89
2023-01-17T02:14:00.185Z,7.89
2023-01-17T02:16:43.959Z,7.89
2023-01-17T02:19:24.731Z,7.89
2023-01-17T02:21:58.273Z,7.89
2023-01-17T02:24:46.816Z,7.90
2023-01-17T02:27:33.459Z,7.91
2023-01-17T02:30:22.496Z,7.94
2023-01-17T02:33:24.827Z,7.96
2023-01-17T02:36:21.292Z,7.98
2023-01-17T02:39:03.660Z,7.98
2023-01-17T02:41:38.826Z,7.97
2023-01-17T02:44:08.491Z,7.96
2023-01-17T02:46:46.224Z,7.94
2023-01-17T02:49:14.927Z,7.95
2023-01-17T02:51:51.166Z,7.97
2023-01-17T02:54:42.822Z,8.01
2023-01-17T02:57:46.212Z,8.04
2023-01-17T03:00:36.493Z,8.04
2023-01-17T03:03:22.178Z,8.03
2023-01-17T03:05:53.484Z,8.02
2023-01-17T03:08:20.857Z,8.02
2023-01-17T03:10:48.118Z,8.01
2023-01-17T03:13:15.407Z,8.03
2023-01-17T03:15:42.733Z,8.04
2023-01-17T03:18:12.645Z,8.04
2023-01-17T03:20:39.613Z,8.05
2023-01-17T03:23:06.701Z,8.07
2023-01-17T03:25:33.702Z,8.06
2023-01-17T03:28:00.807Z,8.06
2023-01-17T03:30:28.065Z,8.06
2023-01-17T03:32:55.027Z,8.07
2023-01-17T03:35:22.136Z,8.08
2023-01-17T03:37:49.291Z,8.11
2023-01-17T03:40:16.539Z,8.11
2023-01-17T03:42:43.695Z,8.09
2023-01-17T03:45:11.330Z,8.08
2023-01-17T03:47:38.396Z,8.08
2023-01-17T03:50:07.765Z,8.07
2023-01-17T03:52:35.905Z,8.05
2023-01-17T03:55:02.975Z,8.04
2023-01-17T03:57:30.967Z,8.03
2023-01-17T03:59:58.256Z,8.00
2023-01-17T10:16:44.990Z,11.13
2023-01-17T10:19:36.781Z,11.10
2023-01-17T10:22:31.271Z,10.98
2023-01-17T10:25:17.372Z,10.85
2023-01-17T10:27:59.061Z,10.75
2023-01-17T10:30:34.799Z,10.66
2023-01-17T10:33:34.634Z,10.60
2023-01-17T10:36:06.201Z,10.56
2023-01-17T10:38:36.628Z,10.57
2023-01-17T10:41:41.330Z,10.56
2023-01-17T10:44:40.222Z,10.57
2023-01-17T10:47:10.434Z,10.58
2023-01-17T10:49:40.014Z,10.60
2023-01-17T10:52:40.813Z,10.59
2023-01-17T10:55:08.981Z,10.52
2023-01-17T10:57:41.834Z,10.46
2023-01-17T11:00:35.121Z,10.40
2023-01-17T11:03:02.465Z,10.36
2023-01-17T11:05:31.220Z,10.34
2023-01-17T11:08:06.447Z,10.34
2023-01-17T11:10:42.456Z,10.38
2023-01-17T11:13:23.782Z,10.41
2023-01-17T11:16:18.135Z,10.47
2023-01-17T11:18:46.215Z,10.53
2023-01-17T11:21:23.539Z,10.56
2023-01-17T11:23:52.217Z,10.60
2023-01-17T11:26:33.153Z,10.65
2023-01-17T11:29:37.524Z,10.66
2023-01-17T11:32:23.148Z,10.69
2023-01-17T11:35:16.960Z,10.69
2023-01-17T11:38:02.543Z,10.62
2023-01-17T11:40:40.146Z,10.54
2023-01-17T11:43:19.598Z,10.54
2023-01-17T11:45:48.048Z,10.54
2023-01-17T11:48:17.108Z,10.52
2023-01-17T11:50:55.402Z,10.52
2023-01-17T11:53:29.371Z,10.54
2023-01-17T11:56:07.113Z,10.55
2023-01-17T11:58:35.942Z,10.52
2023-01-17T12:01:13.249Z,10.44
2023-01-17T12:03:52.647Z,10.36
2023-01-17T12:06:29.732Z,10.34
2023-01-17T12:09:27.822Z,10.30
2023-01-17T12:12:26.121Z,10.23
2023-01-17T12:14:59.269Z,10.16
2023-01-17T12:18:09.252Z,10.12
2023-01-17T12:20:48.904Z,10.09
2023-01-17T12:23:44.444Z,10.04
2023-01-17T12:26:25.953Z,10.02
2023-01-17T12:29:01.291Z,10.00
2023-01-17T12:31:54.261Z,9.96
2023-01-17T12:34:39.823Z,9.93
2023-01-17T12:37:29.799Z,9.90
2023-01-17T12:39:59.931Z,9.87
2023-01-17T12:42:30.135Z,9.90
2023-01-17T12:45:28.883Z,9.94
2023-01-17T12:48:00.192Z,9.97
2023-01-17T12:50:38.845Z,9.96
2023-01-17T12:53:18.939Z,9.98
2023-01-17T12:55:53.671Z,10.00
2023-01-17T12:58:23.347Z,10.03
2023-01-17T13:01:17.646Z,10.10
2023-01-17T13:03:47.912Z,10.23
2023-01-17T13:06:20.093Z,10.32
2023-01-17T13:08:49.965Z,10.41
2023-01-17T13:11:21.346Z,10.50
2023-01-17T13:13:51.595Z,10.51
2023-01-17T19:19:15.546Z,7.26
2023-01-17T19:21:51.278Z,7.31
2023-01-17T19:24:19.633Z,7.29
2023-01-17T19:26:54.161Z,7.29
2023-01-17T19:29:22.316Z,7.32
2023-01-17T19:31:53.952Z,7.34
2023-01-17T19:34:21.033Z,7.36
2023-01-17T19:36:48.992Z,7.39
2023-01-17T19:39:16.484Z,7.41
2023-01-17T19:41:44.507Z,7.41
2023-01-17T19:44:12.724Z,7.42
2023-01-17T19:46:39.802Z,7.42
2023-01-17T19:49:09.018Z,7.43
2023-01-17T19:51:38.873Z,7.42
2023-01-17T19:54:07.382Z,7.42
2023-01-17T19:56:36.667Z,7.42
2023-01-17T19:59:04.692Z,7.44
2023-01-17T20:01:32.882Z,7.46
2023-01-17T20:04:04.026Z,7.49
2023-01-17T20:06:34.625Z,7.49
2023-01-17T20:09:02.638Z,7.50
2023-01-17T20:11:32.863Z,7.53
2023-01-17T20:14:04.992Z,7.54
2023-01-17T20:16:54.803Z,7.56
2023-01-17T20:19:26.102Z,7.56
2023-01-17T20:21:54.052Z,7.57
2023-01-17T20:24:24.871Z,7.59
2023-01-17T20:26:58.229Z,7.59
2023-01-17T20:29:28.646Z,7.60
2023-01-17T20:31:58.475Z,7.58
2023-01-17T20:34:39.445Z,7.59
2023-01-17T20:37:14.384Z,7.61
2023-01-17T20:39:42.950Z,7.64
2023-01-17T20:42:13.053Z,7.72
2023-01-17T20:44:43.131Z,7.79
2023-01-17T20:47:13.347Z,7.87
2023-01-17T20:49:43.977Z,7.94
2023-01-17T20:52:15.261Z,7.99
2023-01-17T20:54:43.979Z,8.03
2023-01-17T20:57:16.757Z,8.06
2023-01-17T20:59:51.473Z,8.08
2023-01-17T21:02:21.990Z,8.10
2023-01-17T21:04:58.451Z,8.12
2023-01-17T21:07:26.505Z,8.14
2023-01-17T21:09:54.421Z,8.13
2023-01-17T21:12:22.064Z,8.13
2023-01-17T21:15:12.075Z,8.14
2023-01-17T21:17:44.721Z,8.13
2023-01-17T21:20:34.440Z,8.13
2023-01-17T21:23:07.945Z,8.16
2023-01-17T21:26:15.502Z,8.21
2023-01-17T21:28:47.128Z,8.21
2023-01-17T21:31:26.025Z,8.23
2023-01-17T21:34:04.694Z,8.21
2023-01-17T21:36:37.448Z,8.18
2023-01-17T21:39:18.189Z,8.18
2023-01-17T21:41:50.801Z,8.19
2023-01-17T21:44:20.788Z,8.20
2023-01-17T21:46:48.308Z,8.19
2023-01-17T21:49:16.731Z,8.20
2023-01-17T21:51:53.312Z,8.20
2023-01-17T21:54:47.093Z,8.19
2023-01-17T21:57:38.284Z,8.20
2023-01-17T22:00:06.606Z,8.21
2023-01-17T22:03:06.116Z,8.20
2023-01-17T22:05:34.293Z,8.18
2023-01-17T22:08:14.940Z,8.18
